Jonathan Harvey

Ojeador - Bristol City
15 Oct 2028
Domingo
Continuar

Personalidad

Adaptabilidad (7) Ambición (8) Controversia (18) Lealtad (2) Presión (14) Profesionalismo (6) Deportividad (4) Temperamento (4)

Perfil

Estilo de dirección Democrático
Licencia Continental A
Determinación 5
Gestión de personas 4
Motivación 8
Disciplina 9
Satisfacción laboral
100%
Fatiga
0%
Cargo Ojeador
Salario 33.0K p/s
Contrato 14.03.2030

Rendimiento

Comportamiento Bueno
Efectividad del entrenamiento
48%
Desarrollo de jugadores
45%
Prevención de lesiones
35%
Implementación táctica
65%

Eventos recientes

Asistió a una reunión de captación 7d atrás
Recomendó un objetivo de fichaje 7d atrás
Asistió a una reunión de captación 14d atrás
Recomendó un objetivo de fichaje 14d atrás
Asistió a una reunión de captación 21d atrás
Recomendó un objetivo de fichaje 21d atrás
Asistió a una reunión de captación 28d atrás
Recomendó un objetivo de fichaje 28d atrás

Actualmente siguiendo

107
Jugador Club Estado Habilidad Confianza Observado Última observación Último voto
Ben Broggio Mansfield Town Activo 116 / 126 40% 2 10.07.2028 -
Amin Nabizada Exeter City Activo 112 / 110 40% 1 10.07.2028 -
Amine Boukamir Charleroi Activo 100 / 115 40% 6 19.06.2028 -
Honest Ahanor Atalanta Activo 139 / 137 40% 6 19.06.2028 -
Nicolò Moranduzzo Renate Activo 94 / 98 40% 3 19.06.2028 -
Carl Piergianni Stevenage Informe listo 103 / 112 65% 1 19.06.2028 -
Celías Ingenthron Platense Activo 112 / 114 40% 1 04.06.2028 -
Jan Bürger Northampton Town Activo 129 / 135 40% 11 01.06.2028 -
Federico Matarán Giana Erminio Perdido 100 / 111 40% 1 01.06.2028 -
Christos Mouzakitis Hull City Activo 139 / 145 40% 6 28.05.2028 -
Josh Nichols Oldham Athletic Activo 120 / 134 40% 6 28.05.2028 -
Tobiáš Pališčák Zlin Activo 94 / 122 40% 3 24.05.2028 -
Jorthy Mokio ADO Den Haag Activo 130 / 132 40% 3 23.05.2028 -
Tyler Fletcher Rotherham United Activo 107 / 127 40% 2 22.05.2028 -
Ronan Kpakio AC Milan Activo 128 / 126 40% 5 21.05.2028 -
Trey Nyoni Rotherham United Activo 135 / 151 40% 4 20.05.2028 -
Andrey Ivlev Nizhniy Novgorod Activo 122 / 110 40% 1 20.05.2028 -
Daniel Banjaqui Benfica Activo 122 / 121 40% 3 19.05.2028 -
Olivier Leroux Mouscron Activo 101 / 113 40% 3 16.05.2028 -
Kiani Inge Groningen Activo 107 / 120 40% 5 09.05.2028 -
Ayden Heaven Portsmouth Activo 142 / 147 40% 4 09.05.2028 -
Martim Cunha Porto Activo 100 / 116 40% 4 07.05.2028 -
Andrea Cogoni Cosenza Activo 109 / 119 40% 2 04.05.2028 -
Giovanni Leoni Lincoln City Activo 141 / 155 40% 3 02.05.2028 -
Riquelme Thompson-Jones Accrington Stanley Activo 109 / 115 40% 3 01.05.2028 -
Musa Danjuma Umraniyespor Activo 109 / 104 40% 1 30.04.2028 -
Bernardo Lima Porto Activo 105 / 113 40% 3 27.04.2028 -
Tobías Ramírez River Plate Activo 118 / 141 40% 1 23.04.2028 -
Josh Acheampong Everton Activo 134 / 157 40% 4 18.04.2028 -
Gideon Manaseh Ikorodu City Activo 100 / 99 40% 1 18.04.2028 -
Miguel Figueiredo Benfica Activo 119 / 131 40% 4 14.04.2028 -
Augusto Bando Ascoli Activo 117 / 112 40% 1 14.04.2028 -
Nicolas Sport Recife Activo 95 / 108 40% 1 12.04.2028 -
Andrea Bertoncini Triestina Activo 94 / 100 40% 1 12.04.2028 -
Makar Vysochenko Spartak Moscow Activo 83 / 85 40% 2 11.04.2028 -
Olivier Mambwa Young Boys Activo 106 / 129 40% 1 06.04.2028 -
Victor Hernandez Santa Fe Activo 107 / 118 40% 3 21.03.2028 -
Caleb Yirenkyi Coventry City Activo 140 / 138 40% 4 26.12.2027 -
Luighi Palmeiras Activo 118 / 126 40% 2 26.12.2027 -
Francisco Triver River Plate Activo 98 / 83 40% 2 22.12.2027 -
Jayden Danns Bradford City Activo 145 / 133 40% 1 22.12.2027 -
Gonçalo Moreira Benfica Activo 117 / 126 40% 1 20.12.2027 -
Dylan Cabral Arsenal Activo 108 / 117 40% 1 20.12.2027 -
Sindre Walle Egeli Udinese Activo 141 / 133 40% 2 16.12.2027 -
Francisco Marchant Colo-Colo Activo 101 / 101 40% 1 16.12.2027 -
Igor Tyjon Barrow AFC Activo 121 / 127 40% 1 15.12.2027 -
Musa Malik Ikorodu City Activo 95 / 99 40% 2 14.12.2027 -
Olger Escobar CF Montreal Activo 102 / 120 40% 3 09.12.2027 -
Giovanni Baroni Talleres Activo 115 / 113 40% 1 09.12.2027 -
Jonny Shore New York City Activo 108 / 91 40% 2 04.12.2027 -
Ruben Ramos LA Galaxy Activo 97 / 114 40% 1 30.11.2027 -
Babis Kostoulas Oxford United Activo 145 / 146 40% 2 27.11.2027 -
Dániel Pintér Inter Miami CF Activo 101 / 105 40% 1 27.11.2027 -
Andy Rojas New York Red Bulls Activo 109 / 115 40% 1 22.11.2027 -
Gonçalo Oliveira Benfica Activo 119 / 112 40% 3 31.05.2027 -
Godwin Oham Warri Wolves Activo 96 / 88 40% 2 31.05.2027 -
Charlie Gray Fleetwood Town Activo 91 / 85 40% 2 25.05.2027 -
Hosea Michael Remo Stars Activo 88 / 102 40% 1 25.05.2027 -
Riley Owen Stevenage Activo 107 / 117 40% 3 24.05.2027 -
Mustapha Jawad Kano Pillars Activo 86 / 95 40% 2 24.05.2027 -
Tiago Freitas Benfica Activo 102 / 114 40% 4 22.05.2027 -
Kazunari Kita Real Sociedad Activo 95 / 107 40% 4 20.05.2027 -
Tommaso Cecotti Carpi Activo 96 / 101 40% 3 20.05.2027 -
Daniel Dennis Ikorodu City Activo 84 / 101 40% 2 12.05.2027 -
Lucas Bergvall Tottenham Activo 153 / 142 40% 3 04.05.2027 -
Ezra Mayers West Ham United Activo 121 / 117 40% 2 04.05.2027 -
Kamaldeen Atiemo Wa All Stars Activo 94 / 98 40% 4 03.05.2027 -
Jenson Jones Walsall Activo 96 / 105 40% 2 03.05.2027 -
Sascha Britschgi AC Milan Activo 124 / 120 40% 3 27.04.2027 -
Zane Albarus Shrewsbury Town Activo 100 / 106 40% 3 24.04.2027 -
Issa Yusuf Shooting Stars Activo 87 / 81 40% 1 24.04.2027 -
Ahmed Akinyele Remo Stars Activo 100 / 95 40% 1 21.04.2027 -
Konta Ismaily Activo 85 / 83 40% 1 12.04.2027 -
David Ozoh Derby County Activo 130 / 136 40% 2 01.04.2027 -
James Dornelly Peterborough United Activo 107 / 106 40% 1 22.03.2027 -
Leandro Martins Benfica Activo 92 / 92 40% 1 12.03.2027 -
Afriyie Sulemana WAFA Activo 93 / 95 40% 1 06.03.2027 -
Bradley de Jesus Nacional Activo 93 / 91 40% 1 03.03.2027 -
Cemran Dansin Orlando Pirates Activo 97 / 114 40% 1 11.01.2027 -
Nikita Krivtsov Krasnodar Activo 124 / 141 40% 1 28.12.2026 -
Harry Clarke Preston Activo 131 / 138 40% 1 28.12.2026 -
Dennis Cirkin Queens Park Rangers Activo 124 / 128 40% 1 28.12.2026 -
Diogo Dalot Manchester United Activo 148 / 155 40% 1 27.12.2026 -
Nathan Collins Brentford Activo 152 / 135 40% 1 16.12.2026 -
Aaron Hickey Brentford Activo 147 / 151 40% 1 16.12.2026 -
Brooke Norton-Cuffy Hull City Activo 128 / 143 40% 1 16.12.2026 -
Max Johnston Derby County Activo 131 / 123 40% 5 15.12.2026 -
Ousmane Diomande Nottingham Forest Activo 145 / 153 40% 1 15.12.2026 -
Alex Scott Bournemouth Activo 152 / 160 40% 2 14.12.2026 -
Shea Charles Southampton Activo 136 / 129 40% 1 11.12.2026 -
André Wolverhampton Activo 143 / 137 40% 1 10.12.2026 -
Manu Morlanes Mallorca Activo 143 / 127 40% 1 10.12.2026 -
Jacques Ekomié Wrexham Activo 133 / 132 40% 1 07.12.2026 -
Aidan Morris Middlesbrough Activo 133 / 130 40% 2 18.11.2026 -
Welington Southampton Activo 138 / 130 40% 1 18.11.2026 -
Kristoffer Lund Birmingham Activo 120 / 136 40% 1 09.11.2026 -
Japhet Sery Larsen Philadelphia Union Activo 114 / 118 40% 1 09.11.2026 -
Alessandro Buongiorno Cagliari Activo 153 / 149 40% 1 08.11.2026 -
Jakub Moder Burnley Activo 135 / 148 40% 2 06.11.2026 -
Nectar Triantis Minnesota United FC Activo 137 / 142 40% 1 06.11.2026 -
Max Bird Birmingham Activo 126 / 122 40% 1 02.11.2026 -
Lasse Berg Johnsen Sporting Kansas City Activo 130 / 117 40% 1 06.10.2026 -
Juan Manuel Sanabria Real Salt Lake Activo 127 / 138 40% 1 05.10.2026 -
Jacob Greaves Ipswich Town Activo 129 / 124 40% 1 05.10.2026 -
Jamie Reid Stevenage Activo 115 / 117 65% 1 03.08.2026 Aprobar
Heung-Min Son Los Angeles Football Club Activo 158 / 151 40% 1 01.08.2026 -
Guilherme Houston Dynamo Activo 129 / 141 40% 1 01.08.2026 -